createdAt,value
2022-12-15T00:00:03.387Z,96572.00
2022-12-15T00:00:13.401Z,96574.00
2022-12-15T00:00:23.544Z,96576.00
2022-12-15T00:00:33.482Z,96576.00
2022-12-15T00:00:43.660Z,96574.00
2022-12-15T00:00:53.703Z,96578.00
2022-12-15T00:01:03.792Z,96578.00
2022-12-15T00:01:13.717Z,96578.00
2022-12-15T00:01:23.735Z,96578.00
2022-12-15T00:01:33.731Z,96578.00
2022-12-15T00:01:43.872Z,96578.00
2022-12-15T00:01:53.877Z,96579.00
2022-12-15T00:02:04.108Z,96581.00
2022-12-15T00:02:14.065Z,96578.00
2022-12-15T00:02:24.386Z,96579.00
2022-12-15T00:02:34.364Z,96579.00
2022-12-15T00:02:44.483Z,96583.00
2022-12-15T00:02:54.792Z,96585.00
2022-12-15T00:03:04.951Z,96583.00
2022-12-15T00:03:14.916Z,96583.00
2022-12-15T00:03:25.238Z,96585.00
2022-12-15T00:03:35.840Z,96585.00
2022-12-15T00:03:45.272Z,96583.00
2022-12-15T00:03:55.479Z,96585.00
2022-12-15T00:04:05.527Z,96587.00
2022-12-15T00:04:15.535Z,96583.00
2022-12-15T00:04:25.911Z,96587.00
2022-12-15T00:04:35.910Z,96585.00
2022-12-15T00:04:46.028Z,96587.00
2022-12-15T00:04:56.298Z,96583.00
2022-12-15T00:05:06.435Z,96585.00
2022-12-15T00:05:16.429Z,96585.00
2022-12-15T00:05:26.685Z,96585.00
2022-12-15T00:05:36.690Z,96583.00
2022-12-15T00:05:49.883Z,96583.00
2022-12-15T00:05:56.786Z,96583.00
2022-12-15T00:06:06.786Z,96581.00
2022-12-15T00:06:16.821Z,96583.00
2022-12-15T00:06:26.860Z,96583.00
2022-12-15T00:06:36.936Z,96583.00
2022-12-15T00:06:47.066Z,96581.00
2022-12-15T00:06:57.019Z,96583.00
2022-12-15T00:07:07.158Z,96583.00
2022-12-15T00:07:17.169Z,96581.00
2022-12-15T00:07:27.285Z,96583.00
2022-12-15T00:07:37.432Z,96583.00
2022-12-15T00:07:47.553Z,96583.00
2022-12-15T00:07:57.550Z,96581.00
2022-12-15T00:08:07.813Z,96585.00
2022-12-15T00:08:17.809Z,96583.00
2022-12-15T00:08:27.929Z,96583.00
2022-12-15T00:08:38.321Z,96581.00
2022-12-15T00:08:48.335Z,96583.00
2022-12-15T00:08:58.311Z,96583.00
2022-12-15T00:09:14.060Z,96583.00
2022-12-15T00:09:20.603Z,96583.00
2022-12-15T00:09:30.925Z,96581.00
2022-12-15T00:09:38.720Z,96583.00
2022-12-15T00:09:48.736Z,96583.00
2022-12-15T00:09:58.995Z,96581.00
2022-12-15T00:10:09.129Z,96581.00
2022-12-15T00:10:19.122Z,96581.00
2022-12-15T00:10:29.377Z,96578.00
2022-12-15T00:10:39.382Z,96579.00
2022-12-15T00:10:49.382Z,96579.00
2022-12-15T00:10:59.400Z,96578.00
2022-12-15T00:11:09.416Z,96578.00
2022-12-15T00:11:19.418Z,96576.00
2022-12-15T00:11:29.429Z,96574.00
2022-12-15T00:11:39.430Z,96576.00
2022-12-15T00:11:49.577Z,96576.00
2022-12-15T00:11:59.561Z,96576.00
2022-12-15T00:12:09.823Z,96576.00
2022-12-15T00:12:19.824Z,96576.00
2022-12-15T00:12:29.937Z,96576.00
2022-12-15T00:12:40.196Z,96581.00
2022-12-15T00:12:50.199Z,96578.00
2022-12-15T00:13:00.218Z,96581.00
2022-12-15T00:13:10.225Z,96583.00
2022-12-15T00:13:20.236Z,96583.00
2022-12-15T00:13:30.810Z,96587.00
2022-12-15T00:13:40.356Z,96583.00
2022-12-15T00:13:50.363Z,96589.00
2022-12-15T00:14:00.372Z,96589.00
2022-12-15T00:14:10.386Z,96591.00
2022-12-15T00:14:20.656Z,96587.00
2022-12-15T00:14:30.776Z,96587.00
2022-12-15T00:14:40.779Z,96587.00
2022-12-15T00:14:51.029Z,96589.00
2022-12-15T00:15:01.035Z,96587.00
2022-12-15T00:15:11.052Z,96589.00
2022-12-15T00:15:21.053Z,96587.00
2022-12-15T00:15:31.061Z,96587.00
2022-12-15T00:15:41.134Z,96587.00
2022-12-15T00:15:51.246Z,96587.00
2022-12-15T00:16:01.398Z,96593.00
2022-12-15T00:16:11.296Z,96591.00
2022-12-15T00:16:21.405Z,96585.00
2022-12-15T00:16:31.599Z,96585.00
2022-12-15T00:16:41.589Z,96591.00
2022-12-15T00:16:51.716Z,96589.00
2022-12-15T00:17:01.974Z,96591.00
2022-12-15T00:17:11.990Z,96593.00
2022-12-15T00:17:22.010Z,96593.00
2022-12-15T00:17:32.017Z,96585.00
2022-12-15T00:17:42.026Z,96593.00
2022-12-15T00:17:52.147Z,96591.00
2022-12-15T00:18:02.152Z,96595.00
2022-12-15T00:18:12.284Z,96595.00
2022-12-15T00:18:22.293Z,96589.00
2022-12-15T00:18:32.410Z,96593.00
2022-12-15T00:18:42.422Z,96595.00
2022-12-15T00:18:52.545Z,96595.00
2022-12-15T00:19:02.552Z,96595.00
2022-12-15T00:19:12.817Z,96597.00
2022-12-15T00:19:22.827Z,96597.00
2022-12-15T00:19:32.834Z,96599.00
2022-12-15T00:19:42.850Z,96601.00
2022-12-15T00:19:52.861Z,96601.00
2022-12-15T00:20:02.880Z,96603.00
2022-12-15T00:20:13.010Z,96607.00
2022-12-15T00:20:23.019Z,96609.00
2022-12-15T00:20:33.139Z,96609.00
2022-12-15T00:20:43.141Z,96611.00
2022-12-15T00:20:53.275Z,96607.00
2022-12-15T00:21:03.286Z,96609.00
2022-12-15T00:21:13.299Z,96609.00
2022-12-15T00:21:23.321Z,96609.00
2022-12-15T00:21:33.322Z,96607.00
2022-12-15T00:21:43.325Z,96607.00
2022-12-15T00:21:53.337Z,96607.00
2022-12-15T00:22:03.352Z,96607.00
2022-12-15T00:22:13.368Z,96607.00
2022-12-15T00:22:23.401Z,96605.00
2022-12-15T00:22:33.399Z,96603.00
2022-12-15T00:22:43.401Z,96603.00
2022-12-15T00:22:53.531Z,96603.00
2022-12-15T00:23:03.542Z,96603.00
2022-12-15T00:23:13.556Z,96603.00
2022-12-15T00:23:23.561Z,96601.00
2022-12-15T00:23:33.841Z,96603.00
2022-12-15T00:23:43.838Z,96603.00
2022-12-15T00:23:53.840Z,96603.00
2022-12-15T00:24:03.842Z,96603.00
2022-12-15T00:24:13.876Z,96601.00
2022-12-15T00:24:23.910Z,96603.00
2022-12-15T00:24:33.901Z,96603.00
2022-12-15T00:24:43.909Z,96603.00
2022-12-15T00:24:53.919Z,96603.00
2022-12-15T00:25:03.923Z,96601.00
2022-12-15T00:25:13.941Z,96603.00
2022-12-15T00:25:23.943Z,96601.00
2022-12-15T00:25:33.958Z,96601.00
2022-12-15T00:25:43.960Z,96597.00
2022-12-15T00:25:53.974Z,96603.00
2022-12-15T00:26:03.991Z,96601.00
2022-12-15T00:26:13.994Z,96603.00
2022-12-15T00:26:24.015Z,96603.00
2022-12-15T00:26:34.017Z,96605.00
2022-12-15T00:26:44.027Z,96605.00
2022-12-15T00:26:54.061Z,96605.00
2022-12-15T00:27:04.045Z,96603.00
2022-12-15T00:27:14.057Z,96605.00
2022-12-15T00:27:24.063Z,96599.00
2022-12-15T00:27:34.075Z,96603.00
2022-12-15T00:27:44.078Z,96605.00
2022-12-15T00:27:54.093Z,96597.00
2022-12-15T00:28:04.104Z,96597.00
2022-12-15T00:28:14.110Z,96603.00
2022-12-15T00:28:24.129Z,96601.00
2022-12-15T00:28:34.136Z,96601.00
2022-12-15T00:28:44.143Z,96603.00
2022-12-15T00:28:54.155Z,96601.00
2022-12-15T00:29:04.161Z,96601.00
2022-12-15T00:29:14.166Z,96603.00
2022-12-15T00:29:24.166Z,96603.00
2022-12-15T00:29:34.175Z,96603.00
2022-12-15T00:29:44.292Z,96601.00
2022-12-15T00:29:54.307Z,96601.00
2022-12-15T00:30:04.557Z,96601.00
2022-12-15T00:30:14.589Z,96601.00
2022-12-15T00:30:24.575Z,96601.00
2022-12-15T00:30:34.612Z,96605.00
2022-12-15T00:30:44.623Z,96603.00
2022-12-15T00:31:00.439Z,96599.00
2022-12-15T00:31:04.688Z,96601.00
2022-12-15T00:31:14.691Z,96601.00
2022-12-15T00:31:24.748Z,96599.00
2022-12-15T00:31:34.826Z,96601.00
2022-12-15T00:31:44.886Z,96601.00
2022-12-15T00:31:55.007Z,96603.00
2022-12-15T00:32:05.022Z,96603.00
2022-12-15T00:32:15.017Z,96603.00
2022-12-15T00:32:25.265Z,96603.00
2022-12-15T00:32:35.265Z,96605.00
2022-12-15T00:32:45.276Z,96605.00
2022-12-15T00:32:55.294Z,96603.00
2022-12-15T00:33:05.303Z,96605.00
2022-12-15T00:33:15.308Z,96609.00
2022-12-15T00:33:25.312Z,96609.00
2022-12-15T00:33:35.339Z,96609.00
2022-12-15T00:33:45.482Z,96607.00
2022-12-15T00:33:55.484Z,96607.00
2022-12-15T00:34:05.733Z,96605.00
2022-12-15T00:34:15.735Z,96607.00
2022-12-15T00:34:25.860Z,96605.00
2022-12-15T00:34:36.123Z,96607.00
2022-12-15T00:34:46.135Z,96609.00
2022-12-15T00:34:56.143Z,96607.00
2022-12-15T00:35:06.201Z,96609.00
2022-12-15T00:35:16.192Z,96607.00
2022-12-15T00:35:26.197Z,96607.00
2022-12-15T00:35:36.198Z,96607.00
2022-12-15T00:35:46.209Z,96607.00
2022-12-15T00:35:56.206Z,96607.00
2022-12-15T00:36:06.329Z,96607.00
2022-12-15T00:36:16.587Z,96605.00
2022-12-15T00:36:26.612Z,96605.00
2022-12-15T00:36:36.617Z,96607.00
2022-12-15T00:36:46.624Z,96605.00
2022-12-15T00:36:56.745Z,96605.00
2022-12-15T00:37:06.750Z,96603.00
2022-12-15T00:37:16.751Z,96607.00
2022-12-15T00:37:26.898Z,96605.00
2022-12-15T00:37:36.910Z,96609.00
2022-12-15T00:37:46.911Z,96609.00
2022-12-15T00:37:56.925Z,96607.00
2022-12-15T00:38:06.937Z,96609.00
2022-12-15T00:38:16.952Z,96607.00
2022-12-15T00:38:26.952Z,96611.00
2022-12-15T00:38:36.964Z,96611.00
2022-12-15T00:38:46.971Z,96611.00
2022-12-15T00:39:01.887Z,96609.00
2022-12-15T00:39:06.989Z,96609.00
2022-12-15T00:39:16.999Z,96609.00
2022-12-15T00:39:27.124Z,96613.00
2022-12-15T00:39:37.127Z,96613.00
2022-12-15T00:39:47.128Z,96611.00
2022-12-15T00:39:57.147Z,96609.00
2022-12-15T00:40:07.152Z,96609.00
2022-12-15T00:40:17.164Z,96611.00
2022-12-15T00:40:27.167Z,96611.00
2022-12-15T00:40:37.177Z,96609.00
2022-12-15T00:40:47.298Z,96611.00
2022-12-15T00:40:57.302Z,96609.00
2022-12-15T00:41:07.427Z,96611.00
2022-12-15T00:41:17.421Z,96611.00
2022-12-15T00:41:27.538Z,96611.00
2022-12-15T00:41:37.540Z,96613.00
2022-12-15T00:41:47.665Z,96611.00
2022-12-15T00:41:57.704Z,96613.00
2022-12-15T00:42:07.951Z,96613.00
2022-12-15T00:42:17.949Z,96615.00
2022-12-15T00:42:27.951Z,96615.00
2022-12-15T00:42:37.950Z,96615.00
2022-12-15T00:42:49.614Z,96613.00
2022-12-15T00:42:58.139Z,96617.00
2022-12-15T00:43:08.139Z,96617.00
2022-12-15T00:43:18.176Z,96617.00
2022-12-15T00:43:28.774Z,96619.00
2022-12-15T00:43:38.257Z,96617.00
2022-12-15T00:43:48.522Z,96617.00
2022-12-15T00:43:58.511Z,96617.00
2022-12-15T00:44:08.532Z,96617.00
2022-12-15T00:44:20.812Z,96615.00
2022-12-15T00:44:28.582Z,96613.00
2022-12-15T00:44:38.579Z,96617.00
2022-12-15T00:44:48.849Z,96615.00
2022-12-15T00:44:58.856Z,96613.00
2022-12-15T00:45:08.853Z,96617.00
2022-12-15T00:45:18.861Z,96615.00
2022-12-15T00:45:28.874Z,96617.00
2022-12-15T00:45:38.875Z,96617.00
2022-12-15T00:45:48.995Z,96615.00
2022-12-15T00:45:58.997Z,96613.00
2022-12-15T00:46:09.090Z,96613.00
2022-12-15T00:46:19.254Z,96613.00
2022-12-15T00:46:29.464Z,96609.00
2022-12-15T00:46:39.488Z,96611.00
2022-12-15T00:46:49.614Z,96611.00
2022-12-15T00:46:59.643Z,96611.00
2022-12-15T00:47:09.573Z,96611.00
2022-12-15T00:47:19.574Z,96609.00
2022-12-15T00:47:29.703Z,96609.00
2022-12-15T00:47:39.700Z,96609.00
2022-12-15T00:47:49.822Z,96609.00
2022-12-15T00:47:59.821Z,96611.00
2022-12-15T00:48:10.076Z,96609.00
2022-12-15T00:48:20.072Z,96611.00
2022-12-15T00:48:30.190Z,96609.00
2022-12-15T00:48:40.455Z,96609.00
2022-12-15T00:48:50.455Z,96611.00
2022-12-15T00:49:00.505Z,96611.00
2022-12-15T00:49:10.495Z,96613.00
2022-12-15T00:49:20.502Z,96615.00
2022-12-15T00:49:30.502Z,96613.00
2022-12-15T00:49:40.512Z,96617.00
2022-12-15T00:49:50.522Z,96615.00
2022-12-15T00:50:00.534Z,96617.00
2022-12-15T00:50:10.532Z,96617.00
2022-12-15T00:50:20.532Z,96615.00
2022-12-15T00:50:30.662Z,96619.00
2022-12-15T00:50:40.729Z,96617.00
2022-12-15T00:50:50.737Z,96617.00
2022-12-15T00:51:00.747Z,96615.00
2022-12-15T00:51:10.865Z,96615.00
2022-12-15T00:51:20.899Z,96615.00
2022-12-15T00:51:31.026Z,96615.00
2022-12-15T00:51:41.048Z,96615.00
2022-12-15T00:51:51.068Z,96613.00
2022-12-15T00:52:01.071Z,96613.00
2022-12-15T00:52:11.083Z,96615.00
2022-12-15T00:52:21.081Z,96613.00
2022-12-15T00:52:31.214Z,96613.00
2022-12-15T00:52:41.226Z,96613.00
2022-12-15T00:52:51.262Z,96611.00
2022-12-15T00:53:01.268Z,96611.00
2022-12-15T00:53:11.529Z,96609.00
2022-12-15T00:53:21.528Z,96611.00
2022-12-15T00:53:32.004Z,96611.00
2022-12-15T00:53:41.972Z,96609.00
2022-12-15T00:53:51.968Z,96607.00
2022-12-15T00:54:01.970Z,96611.00
2022-12-15T00:54:17.880Z,96607.00
2022-12-15T00:54:21.990Z,96603.00
2022-12-15T00:54:31.983Z,96603.00
2022-12-15T00:54:41.981Z,96607.00
2022-12-15T00:54:52.119Z,96605.00
2022-12-15T00:55:02.132Z,96605.00
2022-12-15T00:55:12.138Z,96607.00
2022-12-15T00:55:22.151Z,96605.00
2022-12-15T00:55:32.152Z,96603.00
2022-12-15T00:55:42.146Z,96607.00
2022-12-15T00:55:52.155Z,96605.00
2022-12-15T00:56:02.156Z,96609.00
2022-12-15T00:56:12.164Z,96607.00
2022-12-15T00:56:22.177Z,96607.00
2022-12-15T00:56:32.180Z,96607.00
2022-12-15T00:56:42.192Z,96609.00
2022-12-15T00:56:52.209Z,96611.00
2022-12-15T00:57:02.250Z,96607.00
2022-12-15T00:57:12.222Z,96611.00
2022-12-15T00:57:22.234Z,96613.00
2022-12-15T00:57:32.241Z,96613.00
2022-12-15T00:57:42.252Z,96611.00
2022-12-15T00:57:52.263Z,96613.00
2022-12-15T00:58:02.273Z,96615.00
2022-12-15T00:58:12.289Z,96613.00
2022-12-15T00:58:22.290Z,96615.00
2022-12-15T00:58:32.303Z,96617.00
2022-12-15T00:58:42.317Z,96613.00
2022-12-15T00:58:52.320Z,96615.00
2022-12-15T00:59:02.329Z,96617.00
2022-12-15T00:59:12.343Z,96617.00
2022-12-15T00:59:22.348Z,96617.00
2022-12-15T00:59:32.363Z,96619.00
2022-12-15T00:59:42.376Z,96617.00
2022-12-15T00:59:52.379Z,96619.00
2022-12-15T01:00:02.391Z,96617.00
2022-12-15T01:00:12.417Z,96615.00
2022-12-15T01:00:22.414Z,96617.00
2022-12-15T01:00:32.423Z,96615.00
2022-12-15T01:00:42.428Z,96615.00
2022-12-15T01:00:52.442Z,96613.00
2022-12-15T01:01:02.461Z,96613.00
2022-12-15T01:01:12.466Z,96613.00
2022-12-15T01:01:22.705Z,96611.00
2022-12-15T01:01:32.653Z,96611.00
2022-12-15T01:01:42.756Z,96609.00
2022-12-15T01:01:52.822Z,96609.00
2022-12-15T01:02:03.028Z,96609.00
2022-12-15T01:02:12.959Z,96611.00
2022-12-15T01:02:23.048Z,96611.00
2022-12-15T01:02:33.186Z,96611.00
2022-12-15T01:02:43.384Z,96613.00
2022-12-15T01:02:53.509Z,96617.00
2022-12-15T01:03:03.542Z,96613.00
2022-12-15T01:03:13.517Z,96615.00
2022-12-15T01:03:23.559Z,96615.00
2022-12-15T01:03:34.075Z,96617.00
2022-12-15T01:03:43.714Z,96619.00
2022-12-15T01:03:54.026Z,96619.00
2022-12-15T01:04:03.864Z,96621.00
2022-12-15T01:04:14.082Z,96623.00
2022-12-15T01:04:24.231Z,96625.00
2022-12-15T01:04:34.366Z,96623.00
2022-12-15T01:04:44.375Z,96625.00
2022-12-15T01:04:54.635Z,96628.00
2022-12-15T01:05:04.637Z,96625.00
2022-12-15T01:05:14.798Z,96628.00
2022-12-15T01:05:25.075Z,96630.00
2022-12-15T01:05:35.194Z,96630.00
2022-12-15T01:05:45.205Z,96628.00
2022-12-15T01:05:55.472Z,96630.00
2022-12-15T01:06:05.481Z,96632.00
2022-12-15T01:06:15.476Z,96630.00
2022-12-15T01:06:25.479Z,96628.00
2022-12-15T01:06:35.486Z,96630.00
2022-12-15T01:06:45.510Z,96630.00
2022-12-15T01:06:55.513Z,96630.00
2022-12-15T01:07:05.519Z,96628.00
2022-12-15T01:07:15.656Z,96628.00
2022-12-15T01:07:25.661Z,96628.00
2022-12-15T01:07:35.921Z,96628.00
2022-12-15T01:07:49.540Z,96628.00
2022-12-15T01:07:56.158Z,96630.00
2022-12-15T01:08:06.169Z,96628.00
2022-12-15T01:08:16.180Z,96626.00
2022-12-15T01:08:26.182Z,96628.00
2022-12-15T01:08:36.194Z,96628.00
2022-12-15T01:08:46.208Z,96626.00
2022-12-15T01:08:56.215Z,96626.00
2022-12-15T01:09:06.234Z,96626.00
2022-12-15T01:09:16.246Z,96628.00
2022-12-15T01:09:26.245Z,96630.00
2022-12-15T01:09:36.255Z,96630.00
2022-12-15T01:09:46.281Z,96632.00
2022-12-15T01:09:56.287Z,96632.00
2022-12-15T01:10:06.285Z,96634.00
2022-12-15T01:10:16.306Z,96634.00
2022-12-15T01:10:26.297Z,96638.00
2022-12-15T01:10:36.312Z,96634.00
2022-12-15T01:10:46.307Z,96636.00
2022-12-15T01:10:56.310Z,96638.00
2022-12-15T01:11:06.465Z,96638.00
2022-12-15T01:11:16.468Z,96636.00
2022-12-15T01:11:26.731Z,96640.00
2022-12-15T01:11:36.726Z,96638.00
2022-12-15T01:11:46.853Z,96638.00
2022-12-15T01:11:57.116Z,96640.00
2022-12-15T01:12:07.140Z,96638.00
2022-12-15T01:12:17.124Z,96640.00
2022-12-15T01:12:27.126Z,96636.00
2022-12-15T01:12:37.137Z,96638.00
2022-12-15T01:12:47.141Z,96638.00
2022-12-15T01:12:57.150Z,96636.00
2022-12-15T01:13:07.170Z,96636.00
2022-12-15T01:13:17.168Z,96638.00
2022-12-15T01:13:27.305Z,96638.00
2022-12-15T01:13:37.228Z,96638.00
2022-12-15T01:13:49.583Z,96636.00
2022-12-15T01:13:57.274Z,96638.00
2022-12-15T01:14:07.403Z,96636.00
2022-12-15T01:14:17.411Z,96638.00
2022-12-15T01:14:27.425Z,96634.00
2022-12-15T01:14:37.424Z,96638.00
2022-12-15T01:14:47.554Z,96636.00
2022-12-15T01:14:57.569Z,96636.00
2022-12-15T01:15:07.564Z,96636.00
2022-12-15T01:15:17.564Z,96636.00
2022-12-15T01:15:27.813Z,96634.00
2022-12-15T01:15:37.825Z,96636.00
2022-12-15T01:15:47.856Z,96636.00
2022-12-15T01:15:57.943Z,96636.00
2022-12-15T01:16:08.049Z,96638.00
2022-12-15T01:16:18.122Z,96638.00
2022-12-15T01:16:28.190Z,96640.00
2022-12-15T01:16:38.326Z,96638.00
2022-12-15T01:16:48.263Z,96636.00
2022-12-15T01:16:58.264Z,96638.00
2022-12-15T01:17:08.537Z,96638.00
2022-12-15T01:17:18.559Z,96638.00
2022-12-15T01:17:28.563Z,96638.00
2022-12-15T01:17:38.569Z,96638.00
2022-12-15T01:17:48.696Z,96640.00
2022-12-15T01:17:58.713Z,96640.00
2022-12-15T01:18:08.716Z,96640.00
2022-12-15T01:18:18.723Z,96640.00
2022-12-15T01:18:28.732Z,96642.00
2022-12-15T01:18:38.741Z,96642.00
2022-12-15T01:18:49.648Z,96640.00
2022-12-15T01:18:59.023Z,96642.00
2022-12-15T01:19:09.024Z,96642.00
2022-12-15T01:19:19.032Z,96642.00
2022-12-15T01:19:29.041Z,96642.00
2022-12-15T01:19:39.052Z,96642.00
2022-12-15T01:19:49.070Z,96644.00
2022-12-15T01:19:59.170Z,96646.00
2022-12-15T01:20:09.187Z,96646.00
2022-12-15T01:20:19.202Z,96646.00
2022-12-15T01:20:29.209Z,96646.00
2022-12-15T01:20:39.215Z,96648.00
2022-12-15T01:20:49.256Z,96646.00
2022-12-15T01:20:59.267Z,96652.00
2022-12-15T01:21:09.277Z,96652.00
2022-12-15T01:21:24.097Z,96650.00
2022-12-15T01:21:29.294Z,96650.00
2022-12-15T01:21:39.307Z,96650.00
2022-12-15T01:21:49.315Z,96650.00
2022-12-15T01:21:59.324Z,96648.00
2022-12-15T01:22:09.334Z,96650.00
2022-12-15T01:22:19.463Z,96648.00
2022-12-15T01:22:29.582Z,96646.00
2022-12-15T01:22:39.590Z,96644.00
2022-12-15T01:22:49.852Z,96646.00
2022-12-15T01:22:59.866Z,96644.00
2022-12-15T01:23:09.870Z,96644.00
2022-12-15T01:23:19.874Z,96642.00
2022-12-15T01:23:30.345Z,96640.00
2022-12-15T01:23:39.908Z,96640.00
2022-12-15T01:23:49.910Z,96640.00
2022-12-15T01:23:59.923Z,96640.00
2022-12-15T01:24:09.930Z,96642.00
2022-12-15T01:24:19.947Z,96640.00
2022-12-15T01:24:29.941Z,96640.00
2022-12-15T01:24:39.952Z,96642.00
2022-12-15T01:24:50.093Z,96640.00
2022-12-15T01:25:00.119Z,96640.00
2022-12-15T01:25:10.126Z,96640.00
2022-12-15T01:25:20.124Z,96640.00
2022-12-15T01:25:30.136Z,96642.00
2022-12-15T01:25:40.492Z,96642.00
2022-12-15T01:25:50.492Z,96640.00
2022-12-15T01:26:00.505Z,96640.00
2022-12-15T01:26:10.506Z,96640.00
2022-12-15T01:26:20.598Z,96640.00
2022-12-15T01:26:30.590Z,96640.00
2022-12-15T01:26:40.599Z,96640.00
2022-12-15T01:26:50.607Z,96640.00
2022-12-15T01:27:00.619Z,96642.00
2022-12-15T01:27:10.638Z,96638.00
2022-12-15T01:27:20.622Z,96638.00
2022-12-15T01:27:30.748Z,96640.00
2022-12-15T01:27:40.757Z,96640.00
2022-12-15T01:27:50.764Z,96642.00
2022-12-15T01:28:00.778Z,96642.00
2022-12-15T01:28:10.786Z,96640.00
2022-12-15T01:28:20.799Z,96642.00
2022-12-15T01:28:31.058Z,96642.00
2022-12-15T01:28:41.070Z,96642.00
2022-12-15T01:28:51.085Z,96642.00
2022-12-15T01:29:01.077Z,96642.00
2022-12-15T01:29:11.202Z,96642.00
2022-12-15T01:29:21.214Z,96642.00
2022-12-15T01:29:31.213Z,96646.00
2022-12-15T01:29:41.218Z,96642.00
2022-12-15T01:29:51.346Z,96642.00
2022-12-15T01:30:01.352Z,96648.00
2022-12-15T01:30:11.488Z,96646.00
2022-12-15T01:30:21.487Z,96646.00
2022-12-15T01:30:31.503Z,96648.00
2022-12-15T01:30:41.537Z,96650.00
2022-12-15T01:30:51.584Z,96652.00
2022-12-15T01:31:01.621Z,96654.00
2022-12-15T01:31:11.821Z,96650.00
2022-12-15T01:31:21.832Z,96654.00
2022-12-15T01:31:31.815Z,96656.00
2022-12-15T01:31:41.851Z,96658.00
2022-12-15T01:31:51.944Z,96656.00
2022-12-15T01:32:02.035Z,96654.00
2022-12-15T01:32:12.060Z,96660.00
2022-12-15T01:32:22.068Z,96660.00
2022-12-15T01:32:32.077Z,96660.00
2022-12-15T01:32:46.021Z,96660.00
2022-12-15T01:32:52.098Z,96662.00
2022-12-15T01:33:02.104Z,96658.00
2022-12-15T01:33:12.227Z,96660.00
2022-12-15T01:33:22.225Z,96662.00
2022-12-15T01:33:32.945Z,96660.00
2022-12-15T01:33:42.712Z,96660.00
2022-12-15T01:33:52.673Z,96660.00
2022-12-15T01:34:02.677Z,96660.00
2022-12-15T01:34:12.682Z,96658.00
2022-12-15T01:34:22.704Z,96658.00
2022-12-15T01:34:32.688Z,96656.00
2022-12-15T01:34:42.697Z,96656.00
2022-12-15T01:34:52.699Z,96654.00
2022-12-15T01:35:02.712Z,96656.00
2022-12-15T01:35:12.712Z,96656.00
2022-12-15T01:35:22.711Z,96654.00
2022-12-15T01:35:32.864Z,96654.00
2022-12-15T01:35:42.887Z,96652.00
2022-12-15T01:35:52.893Z,96652.00
2022-12-15T01:36:02.896Z,96652.00
2022-12-15T01:36:12.904Z,96652.00
2022-12-15T01:36:23.175Z,96650.00
2022-12-15T01:36:33.192Z,96646.00
2022-12-15T01:36:43.191Z,96648.00
2022-12-15T01:36:53.198Z,96644.00
2022-12-15T01:37:03.200Z,96648.00
2022-12-15T01:37:13.194Z,96648.00
2022-12-15T01:37:23.208Z,96648.00
2022-12-15T01:37:33.221Z,96648.00
2022-12-15T01:37:43.216Z,96652.00
2022-12-15T01:37:53.240Z,96652.00
2022-12-15T01:38:03.247Z,96654.00
2022-12-15T01:38:13.260Z,96654.00
2022-12-15T01:38:23.259Z,96652.00
2022-12-15T01:38:33.272Z,96654.00
2022-12-15T01:38:43.294Z,96650.00
2022-12-15T01:38:54.486Z,96654.00
2022-12-15T01:39:03.390Z,96652.00
2022-12-15T01:39:13.769Z,96652.00
2022-12-15T01:39:23.777Z,96652.00
2022-12-15T01:39:33.896Z,96652.00
2022-12-15T01:39:44.155Z,96652.00
2022-12-15T01:39:54.281Z,96650.00
2022-12-15T01:40:04.290Z,96652.00
2022-12-15T01:40:14.543Z,96650.00
2022-12-15T01:40:24.560Z,96654.00
2022-12-15T01:40:34.594Z,96652.00
2022-12-15T01:40:44.601Z,96650.00
2022-12-15T01:40:54.620Z,96650.00
2022-12-15T01:41:04.620Z,96652.00
2022-12-15T01:41:14.635Z,96652.00
2022-12-15T01:41:24.645Z,96650.00
2022-12-15T01:41:34.646Z,96648.00
2022-12-15T01:41:44.657Z,96648.00
2022-12-15T01:41:54.672Z,96648.00
2022-12-15T01:42:04.678Z,96646.00
2022-12-15T01:42:14.717Z,96646.00
2022-12-15T01:42:24.696Z,96644.00
2022-12-15T01:42:34.713Z,96646.00
2022-12-15T01:42:44.726Z,96644.00
2022-12-15T01:42:54.728Z,96648.00
2022-12-15T01:43:04.748Z,96646.00
2022-12-15T01:43:14.752Z,96646.00
2022-12-15T01:43:24.760Z,96648.00
2022-12-15T01:43:35.381Z,96648.00
2022-12-15T01:43:44.793Z,96652.00
2022-12-15T01:43:54.801Z,96652.00
2022-12-15T01:44:04.800Z,96652.00
2022-12-15T01:44:14.805Z,96652.00
2022-12-15T01:44:24.810Z,96654.00
2022-12-15T01:44:34.825Z,96654.00
2022-12-15T01:44:44.830Z,96654.00
2022-12-15T01:44:54.853Z,96652.00
2022-12-15T01:45:04.859Z,96654.00
2022-12-15T01:45:14.868Z,96652.00
2022-12-15T01:45:24.874Z,96652.00
2022-12-15T01:45:34.884Z,96648.00
2022-12-15T01:45:44.909Z,96652.00
2022-12-15T01:45:54.903Z,96650.00
2022-12-15T01:46:04.909Z,96652.00
2022-12-15T01:46:14.991Z,96650.00
2022-12-15T01:46:25.035Z,96650.00
2022-12-15T01:46:35.114Z,96652.00
2022-12-15T01:46:45.213Z,96654.00
2022-12-15T01:46:55.381Z,96652.00
2022-12-15T01:47:05.374Z,96654.00
2022-12-15T01:47:15.664Z,96654.00
2022-12-15T01:47:25.681Z,96652.00
2022-12-15T01:47:35.798Z,96656.00
2022-12-15T01:47:46.067Z,96652.00
2022-12-15T01:47:56.188Z,96650.00
2022-12-15T01:48:06.190Z,96654.00
2022-12-15T01:48:16.442Z,96650.00
2022-12-15T01:48:26.459Z,96648.00
2022-12-15T01:48:36.468Z,96648.00
2022-12-15T01:48:46.468Z,96646.00
2022-12-15T01:48:56.490Z,96650.00
2022-12-15T01:49:06.494Z,96648.00
2022-12-15T01:49:16.495Z,96648.00
2022-12-15T01:49:26.511Z,96648.00
2022-12-15T01:49:36.513Z,96648.00
2022-12-15T01:49:46.536Z,96648.00
2022-12-15T01:49:56.584Z,96650.00
2022-12-15T01:50:06.603Z,96648.00
2022-12-15T01:50:16.702Z,96652.00
2022-12-15T01:50:26.715Z,96648.00
2022-12-15T01:50:36.713Z,96648.00
2022-12-15T01:50:46.854Z,96650.00
2022-12-15T01:50:56.854Z,96650.00
2022-12-15T01:51:06.987Z,96648.00
2022-12-15T01:51:16.979Z,96650.00
2022-12-15T01:51:27.120Z,96650.00
2022-12-15T01:51:37.135Z,96648.00
2022-12-15T01:51:47.150Z,96650.00
2022-12-15T01:51:57.150Z,96648.00
2022-12-15T01:52:07.160Z,96648.00
2022-12-15T01:52:17.165Z,96648.00
2022-12-15T01:52:27.288Z,96648.00
2022-12-15T01:52:37.296Z,96648.00
2022-12-15T01:52:49.575Z,96648.00
2022-12-15T01:52:57.475Z,96650.00
2022-12-15T01:53:07.486Z,96650.00
2022-12-15T01:53:17.616Z,96650.00
2022-12-15T01:53:27.921Z,96654.00
2022-12-15T01:53:37.675Z,96650.00
2022-12-15T01:53:47.693Z,96652.00
2022-12-15T01:53:57.723Z,96654.00
2022-12-15T01:54:07.721Z,96654.00
2022-12-15T01:54:17.728Z,96654.00
2022-12-15T01:54:27.742Z,96656.00
2022-12-15T01:54:37.761Z,96654.00
2022-12-15T01:54:48.532Z,96654.00
2022-12-15T01:54:57.772Z,96654.00
2022-12-15T01:55:07.897Z,96652.00
2022-12-15T01:55:17.903Z,96650.00
2022-12-15T01:55:27.903Z,96652.00
2022-12-15T01:55:37.908Z,96650.00
2022-12-15T01:55:48.105Z,96652.00
2022-12-15T01:55:58.088Z,96648.00
2022-12-15T01:56:08.212Z,96650.00
2022-12-15T01:56:18.218Z,96648.00
2022-12-15T01:56:31.210Z,96646.00
2022-12-15T01:56:38.330Z,96646.00
2022-12-15T01:56:48.684Z,96650.00
2022-12-15T01:56:58.427Z,96650.00
2022-12-15T01:57:08.553Z,96654.00
2022-12-15T01:57:18.591Z,96650.00
2022-12-15T01:57:28.701Z,96652.00
2022-12-15T01:57:38.698Z,96652.00
2022-12-15T01:57:48.845Z,96652.00
2022-12-15T01:57:59.108Z,96654.00